• Join FlightAware (Why Join?)
  • Login
  • US Flag 
01:02PM EDT


 

Airport Tracker/Info


-or-


 

Live Flight TrackerFlight Track Log ✈ DAL1781 ✈ 24-Aug-2013 ✈ KMSP - KATL

Flight Track Log - Related Links

Times and Time Zones

All times are in EDT time to prevent confusion due to time zone crossing. See the DAL1781 flight status page for this flight to view local times or setup timezone preferences in your user account.

Time Position Orientation Groundspeed Altitude Reporting Facility
EDT Latitude Longitude Course Direction KTS MPH feet Rate Location/Type
04:10PM 44.8394 -93.1931 120° Southeast 195 224 3,200  Level Minneapolis Center
04:11PM 44.8089 -93.1047 116° Southeast 251 289 5,500 2,580 Climbing Minneapolis Center
04:12PM 44.5919 -92.9464 145° Southeast  Level Estimated
04:12PM 44.7650 -93.0078 122° Southeast 292 336 8,500  Level Minneapolis Center
04:13PM 44.4950 -92.8552 137° Southeast  Level Estimated
04:13PM 44.7050 -92.9278 137° Southeast 296 341 10,900  Level Minneapolis Center
04:14PM 44.3981 -92.7644 115° Southeast  Level Estimated
04:14PM 44.6314 -92.8300 137° Southeast 361 415 12,300  Level Minneapolis Center
04:15PM 44.3011 -92.6738 120° Southeast  Level Estimated
04:15PM 44.5572 -92.7178 133° Southeast 388 447 15,100  Level Minneapolis Center
04:16PM 44.4908 -92.5867 125° Southeast 411 473 17,100 1,920 Climbing Minneapolis Center
04:17PM 44.4219 -92.4531 126° Southeast 421 484 19,100 2,040 Climbing Minneapolis Center
04:18PM 44.3369 -92.2847 125° Southeast 435 501 21,400 1,980 Climbing Minneapolis Center
04:19PM 44.2625 -92.1400 126° Southeast 453 521 23,200 1,680 Climbing Minneapolis Center
04:20PM 44.1856 -91.9936 126° Southeast 463 533 24,900 1,560 Climbing Minneapolis Center
04:21PM 44.1083 -91.8444 126° Southeast 470 541 26,500 1,380 Climbing Minneapolis Center
04:22PM 44.0297 -91.6917 126° Southeast 482 555 27,800 1,380 Climbing Minneapolis Center
04:23PM 43.9519 -91.5433 126° Southeast 488 562 29,400 1,500 Climbing Minneapolis Center
04:24PM 43.8664 -91.3986 129° Southeast 489 563 31,000 1,620 Climbing Minneapolis Center
04:25PM 43.7503 -91.2397 135° Southeast 492 566 32,800 1,320 Climbing Minneapolis Center
04:27PM 43.6556 -91.1078 135° Southeast 489 563 34,000 1,200 Climbing Minneapolis Center
04:27PM 43.5778 -91.0014 135° Southeast 494 568 35,100 1,380 Climbing Chicago Center
04:28PM 43.4836 -90.8706 135° Southeast 484 557 36,400 1,020 Climbing Chicago Center
04:29PM 43.3747 -90.7592 143° Southeast 495 570 37,300 840 Climbing Chicago Center
04:30PM 43.2219 -90.6811 160° South 491 565 38,200 720 Climbing Chicago Center
04:31PM 43.0925 -90.6156 160° South 497 572 38,800 360 Climbing Chicago Center
04:32PM 42.9631 -90.5461 159° South 499 574 39,000 60 Climbing Chicago Center
04:34PM 42.8353 -90.4828 160° South 494 568 39,000  Level Chicago Center
04:35PM 42.7058 -90.4250 162° South 492 566 39,000  Level Chicago Center
04:36PM 42.5747 -90.3664 162° South 496 571 39,000  Level Chicago Center
04:37PM 42.4158 -90.2986 163° South 500 575 39,000  Level Chicago Center
04:38PM 42.2833 -90.2422 163° South 501 577 39,000  Level Chicago Center
04:39PM 42.1511 -90.1842 162° South 503 579 39,000  Level Chicago Center
04:40PM 42.0192 -90.1269 162° South 501 577 39,000  Level Chicago Center
04:41PM 41.8878 -90.0719 163° South 499 574 39,000  Level Chicago Center
04:42PM 41.7444 -90.0125 163° South 499 574 39,000  Level Chicago Center
04:43PM 41.6147 -89.9556 162° South 492 566 39,000  Level Chicago Center
04:44PM 41.4842 -89.9003 162° South 491 565 39,000  Level Chicago Center
04:45PM 41.3275 -89.8347 163° South 491 565 39,000  Level Chicago Center
04:46PM 41.1972 -89.7803 163° South 491 565 39,000  Level Chicago Center
04:47PM 41.0683 -89.7272 163° South 485 558 39,000  Level Chicago Center
04:48PM 40.9425 -89.6750 163° South 489 563 39,000  Level Chicago Center
04:49PM 40.7875 -89.6114 163° South 492 566 39,000  Level Chicago Center
04:50PM 40.6583 -89.5575 162° South 492 566 39,000  Level Chicago Center
04:51PM 40.5389 -89.5094 163° South 489 563 39,000  Level Chicago Center
04:52PM 40.4083 -89.4567 163° South 488 562 39,000  Level Chicago Center
04:53PM 40.2783 -89.4031 163° South 489 563 39,000  Level Chicago Center
04:54PM 40.1231 -89.3394 163° South 487 560 39,000  Level Chicago Center
04:55PM 40.0442 -89.3092 164° South 488 562 39,000  Level Kansas City Center
04:56PM 39.9136 -89.2583 163° South 489 563 39,000  Level Kansas City Center
04:57PM 39.7839 -89.2050 162° South 489 563 39,000  Level Kansas City Center
04:58PM 39.6531 -89.1539 163° South 490 564 39,000  Level Kansas City Center
04:59PM 39.5222 -89.1025 163° South 490 564 39,000  Level Kansas City Center
05:00PM 39.3889 -89.0486 163° South 490 564 39,000  Level Kansas City Center
05:01PM 39.2586 -88.9992 164° South 487 560 39,000  Level Kansas City Center
05:02PM 39.1283 -88.9478 163° South 489 563 39,000  Level Kansas City Center
05:03PM 38.9733 -88.8875 163° South 485 558 39,000  Level Kansas City Center
05:04PM 38.8439 -88.8364 163° South 485 558 39,000  Level Kansas City Center
05:05PM 38.7139 -88.7875 164° South 486 559 39,000  Level Kansas City Center
05:06PM 38.5736 -88.7342 163° South 486 559 39,000  Level Kansas City Center
05:07PM 38.4478 -88.6608 155° Southeast 481 554 39,000  Level Kansas City Center
05:08PM 38.3392 -88.5633 145° Southeast 479 551 39,000  Level Kansas City Center
05:09PM 38.2328 -88.4644 144° Southeast 475 547 39,000  Level Kansas City Center
05:10PM 38.1261 -88.3664 144° Southeast 474 545 39,000  Level Kansas City Center
05:11PM 38.0411 -88.2914 145° Southeast 475 547 39,000  Level Indianapolis Center
05:12PM 37.9086 -88.1781 146° Southeast 479 551 39,000  Level Indianapolis Center
05:13PM 37.7986 -88.0831 146° Southeast 478 550 39,000  Level Indianapolis Center
05:14PM 37.6978 -87.9964 146° Southeast 478 550 39,000  Level Indianapolis Center
05:15PM 37.5867 -87.8992 145° Southeast 480 552 39,000  Level Indianapolis Center
05:16PM 37.4756 -87.8061 146° Southeast 478 550 39,000  Level Indianapolis Center
05:17PM 37.3461 -87.6964 146° Southeast 478 550 39,000  Level Indianapolis Center
05:18PM 37.2344 -87.6017 146° Southeast 480 552 39,000  Level Indianapolis Center
05:19PM 37.1236 -87.5081 146° Southeast 477 549 39,000  Level Indianapolis Center
05:20PM 37.0125 -87.4142 146° Southeast 478 550 39,000  Level Indianapolis Center
05:21PM 36.9019 -87.3203 146° Southeast 475 547 39,000  Level Indianapolis Center
05:22PM 36.7914 -87.2264 146° Southeast 476 548 39,000  Level Indianapolis Center
05:23PM 36.6814 -87.1344 146° Southeast 473 544 39,000  Level Indianapolis Center
05:24PM 36.5722 -87.0431 146° Southeast 469 540 39,000  Level Indianapolis Center
05:25PM 36.4625 -86.9517 146° Southeast 471 542 39,000  Level Indianapolis Center
05:26PM 36.3439 -86.8583 148° Southeast 472 543 39,000  Level Indianapolis Center
05:28PM 36.2186 -86.7528 146° Southeast 491 565 39,000  Level Memphis Center
05:29PM 36.1097 -86.6653 147° Southeast 491 565 39,000  Level Memphis Center
05:30PM 36.0008 -86.5778 147° Southeast 475 547 39,000  Level Memphis Center
05:31PM 35.8939 -86.4878 146° Southeast 470 541 39,000 -60 Level Memphis Center
05:32PM 35.7828 -86.4008 148° Southeast 476 548 38,900 -900 Descending Memphis Center
05:33PM 35.6169 -86.2586 145° Southeast 484 557 36,800 -1,140 Descending Atlanta Center
05:34PM 35.5458 -86.1469 128° Southeast 477 549 36,000 -480 Descending Atlanta Center
05:35PM 35.4372 -86.0219 137° Southeast 463 533 35,900 -720 Descending Atlanta Center
05:36PM 35.3175 -85.9528 155° Southeast 475 547 34,600 -1,320 Descending Atlanta Center
05:37PM 35.1883 -85.9322 173° South 469 540 33,300 -1,320 Descending Atlanta Center
05:38PM 35.0694 -85.9294 179° South 469 540 32,000 -1,320 Descending Atlanta Center
05:39PM 34.9317 -85.9289 180° South 484 557 30,700 -1,140 Descending Atlanta Center
05:40PM 34.7881 -85.9181 176° South 484 557 29,800 -1,440 Descending Atlanta Center
05:41PM 34.6586 -85.9125 178° South 479 551 27,900 -1,800 Descending Atlanta Center
05:42PM 34.5511 -85.8522 155° Southeast 437 503 26,300 -1,920 Descending Atlanta Center
05:43PM 34.4942 -85.7450 123° Southeast 400 460 24,100 -2,100 Descending Atlanta Center
05:44PM 34.4331 -85.6256 122° Southeast 400 460 22,200 -2,040 Descending Atlanta Center
05:45PM 34.3700 -85.4983 121° Southeast 400 460 20,100 -2,040 Descending Atlanta Center
05:46PM 34.3086 -85.3917 125° Southeast 395 455 18,200 -1,680 Descending Atlanta Center
05:47PM 34.2594 -85.2981 122° Southeast 389 448 16,800 -1,620 Descending Atlanta Center
05:48PM 34.2064 -85.1967 122° Southeast 373 429 15,000 -1,860 Descending Atlanta Center
05:49PM 34.1508 -85.1031 126° Southeast 357 411 13,100 -1,020 Descending Atlanta Center
05:50PM 34.0847 -85.0194 134° Southeast 346 398 13,000 -360 Descending Atlanta Center
05:51PM 34.0206 -84.9361 133° Southeast 341 392 12,400 -720 Descending Atlanta Center
05:52PM 33.9481 -84.8803 147° Southeast 294 338 11,600 -900 Descending Atlanta Center
05:53PM 33.8622 -84.8894 185° South 294 338 10,700 -960 Descending Atlanta Center
05:54PM 33.7850 -84.8961 184° South 289 333 9,700 -1,020 Descending Atlanta Center
05:55PM 33.7161 -84.8956 180° South 263 303 8,700 -1,260 Descending Atlanta Center
05:56PM 33.6500 -84.8667 160° South 218 251 7,300 -960 Descending Atlanta TRACON
05:57PM 33.6333 -84.8167 112° Southeast 185 213 6,900 -780 Descending Atlanta TRACON
05:58PM 33.6333 -84.7667 90° East 176 203 5,900 -1,020 Descending Atlanta TRACON
05:59PM 33.6333 -84.7000 90° East 168 193 5,000 -900 Descending Atlanta TRACON
06:00PM 33.6333 -84.6500 90° East 166 191 4,100 -900 Descending Atlanta TRACON
06:01PM 33.6333 -84.6000 90° East 161 185 3,300 -840 Descending Atlanta TRACON
06:02PM 33.6333 -84.5500 90° East 157 181 2,500 -780 Descending Atlanta TRACON
06:03PM 33.6333 -84.4833 90° East 132 152 1,700 -780 Descending Atlanta TRACON